To NAV CANADA Home Page Login to a new session Search on AWWS site Disclaimer Vers la page française équivalente Tips FAQ What's new on the site To the Forecasts and Observations / NOTAM section To "File a Flight Plan" website Publications and other links Update of the User's profile FIC Telephone Numbers My Weather Data Folder Route Weather Data Regional Weather Data Local Weather Data To the Forecasts and Observations / NOTAM section
Request Generated 04/24/2019 at 16:11:32 UTC . Weather information available at that time is displayed.

METAR/TAF

STEWART/BC    

METAR CZST 241600Z 22003KT 190V270 3SM -RASN SCT007 BKN012 OVC045 01/00 A3037 RMK SC4SC2SC2 SLP285=
METAR CZST 241500Z 00000KT 3SM -RASN BKN007 OVC060 02/01 A3036 RMK SC5SC3 CLIMAT 6.3/0.5/5.0 SLP282=
SPECI CZST 241451Z VRB02KT 3SM -RASN BKN007 OVC055 02/01 A3036 RMK SC5SC3 SLP282=
SPECI CZST 241430Z VRB02KT 3SM -RA BR BKN007 OVC060 01/01 A3035 RMK SC5SC3 SLP280=
SPECI CZST 241413Z 00000KT 3SM -RASN BKN007 OVC055 02/01 A3035 RMK SC5SC3 SLP280=
METAR CZST 241400Z 00000KT 3SM -RA BR SCT010 BKN025 OVC060 01/01 A3035 RMK SC4SC2SC2 VRY LGT PCPN SLP280=

CZST - No TAF is issued for this station

Your time UTC time
Weather data provided by Environment Canada and NAV CANADA